createdAt,value
2023-02-27T00:01:23.683Z,58.16
2023-02-27T00:03:54.329Z,58.20
2023-02-27T00:06:24.690Z,58.45
2023-02-27T00:08:55.244Z,58.55
2023-02-27T00:11:26.270Z,58.61
2023-02-27T00:13:56.828Z,58.80
2023-02-27T00:16:27.298Z,58.86
2023-02-27T00:19:01.181Z,58.97
2023-02-27T00:21:31.793Z,59.02
2023-02-27T00:24:02.199Z,59.10
2023-02-27T00:26:32.560Z,59.22
2023-02-27T00:29:03.683Z,59.30
2023-02-27T00:31:34.738Z,59.44
2023-02-27T00:34:05.358Z,59.46
2023-02-27T00:36:35.772Z,59.49
2023-02-27T00:39:06.684Z,59.51
2023-02-27T00:41:37.083Z,59.58
2023-02-27T00:44:08.426Z,59.67
2023-02-27T00:46:39.000Z,59.74
2023-02-27T00:49:09.752Z,59.88
2023-02-27T00:51:40.198Z,59.93
2023-02-27T00:54:10.685Z,60.00
2023-02-27T00:56:41.343Z,60.02
2023-02-27T00:59:11.746Z,59.91
2023-02-27T01:01:42.167Z,59.75
2023-02-27T01:04:12.825Z,59.71
2023-02-27T01:06:43.303Z,59.80
2023-02-27T01:09:13.822Z,59.59
2023-02-27T01:11:44.255Z,59.58
2023-02-27T01:14:15.018Z,59.58
2023-02-27T01:16:46.368Z,59.54
2023-02-27T01:19:18.836Z,59.62
2023-02-27T01:21:49.183Z,59.82
2023-02-27T01:24:20.131Z,59.85
2023-02-27T01:26:53.061Z,59.98
2023-02-27T01:29:24.707Z,60.01
2023-02-27T01:31:55.263Z,59.92
2023-02-27T01:34:25.779Z,59.92
2023-02-27T01:36:56.163Z,59.80
2023-02-27T01:39:27.632Z,59.82
2023-02-27T01:41:58.029Z,59.69
2023-02-27T01:44:30.131Z,59.58
2023-02-27T01:47:00.795Z,59.33
2023-02-27T01:49:32.641Z,59.07
2023-02-27T01:52:06.157Z,59.09
2023-02-27T01:54:38.021Z,59.13
2023-02-27T01:57:09.745Z,59.11
2023-02-27T01:59:42.418Z,59.17
2023-02-27T02:02:15.824Z,59.11
2023-02-27T02:04:46.437Z,59.17
2023-02-27T02:07:19.001Z,59.29
2023-02-27T02:09:53.346Z,59.36
2023-02-27T02:12:26.561Z,59.40
2023-02-27T02:14:57.005Z,59.52
2023-02-27T02:17:35.482Z,59.50
2023-02-27T02:20:28.072Z,59.57
2023-02-27T02:23:34.385Z,59.53
2023-02-27T02:26:43.108Z,59.75
2023-02-27T02:29:33.362Z,59.75
2023-02-27T02:32:25.106Z,59.88
2023-02-27T02:35:16.837Z,59.92
2023-02-27T02:38:17.181Z,59.86
2023-02-27T02:40:50.353Z,59.72
2023-02-27T02:43:27.218Z,59.73
2023-02-27T02:46:02.871Z,59.78
2023-02-27T02:48:36.396Z,59.64
2023-02-27T02:51:09.264Z,59.53
2023-02-27T02:53:40.432Z,59.62
2023-02-27T02:56:14.240Z,59.43
2023-02-27T02:58:50.060Z,59.33
2023-02-27T03:01:23.607Z,59.22
2023-02-27T03:03:57.613Z,59.03
2023-02-27T03:06:30.922Z,58.80
2023-02-27T03:09:06.999Z,58.69
2023-02-27T03:11:41.302Z,58.61
2023-02-27T03:14:15.109Z,58.78
2023-02-27T03:16:47.622Z,58.48
2023-02-27T03:19:21.988Z,58.59
2023-02-27T03:21:56.647Z,58.72
2023-02-27T03:24:29.292Z,58.62
2023-02-27T03:27:02.932Z,58.54
2023-02-27T03:29:40.976Z,58.41
2023-02-27T03:32:16.025Z,58.23
2023-02-27T03:34:47.854Z,58.31
2023-02-27T03:37:26.500Z,58.26
2023-02-27T03:40:02.752Z,58.19
2023-02-27T03:42:37.199Z,57.80
2023-02-27T03:45:24.250Z,57.92
2023-02-27T03:47:55.677Z,58.07
2023-02-27T03:50:26.027Z,58.18
2023-02-27T03:52:56.560Z,58.07
2023-02-27T03:55:30.260Z,58.13
2023-02-27T03:58:01.045Z,58.12
2023-02-27T04:00:31.828Z,57.98
2023-02-27T04:03:17.777Z,57.78
2023-02-27T04:05:48.858Z,57.67
2023-02-27T04:08:31.362Z,57.60
2023-02-27T04:11:16.130Z,57.61
2023-02-27T04:14:06.816Z,57.60
2023-02-27T04:16:45.966Z,57.40
2023-02-27T04:19:37.767Z,57.59
2023-02-27T04:22:19.065Z,57.74
2023-02-27T04:24:56.382Z,57.80
2023-02-27T04:27:33.816Z,57.74
2023-02-27T04:30:12.789Z,57.71
2023-02-27T04:32:48.166Z,57.67
2023-02-27T04:35:24.786Z,57.78
2023-02-27T04:37:59.648Z,57.66
2023-02-27T04:40:34.663Z,57.70
2023-02-27T04:43:07.528Z,57.85
2023-02-27T04:45:41.336Z,57.66
2023-02-27T04:48:16.735Z,57.58
2023-02-27T04:50:50.469Z,57.66
2023-02-27T04:53:24.185Z,57.56
2023-02-27T04:55:56.999Z,57.63
2023-02-27T04:58:29.633Z,57.52
2023-02-27T05:01:04.749Z,57.68
2023-02-27T05:03:37.816Z,57.62
2023-02-27T05:06:10.624Z,57.71
2023-02-27T05:08:45.883Z,57.86
2023-02-27T05:11:19.389Z,57.85
2023-02-27T05:13:52.710Z,57.94
2023-02-27T05:16:27.124Z,58.04
2023-02-27T05:18:58.037Z,58.04
2023-02-27T05:21:30.807Z,58.20
2023-02-27T05:24:15.503Z,58.15
2023-02-27T05:26:59.833Z,58.33
2023-02-27T05:29:37.497Z,58.42
2023-02-27T05:32:15.571Z,58.44
2023-02-27T05:34:48.723Z,58.60
2023-02-27T05:37:21.463Z,58.62
2023-02-27T05:39:53.569Z,58.65
2023-02-27T05:42:28.653Z,58.73
2023-02-27T05:45:03.195Z,58.62
2023-02-27T05:47:35.959Z,58.63
2023-02-27T05:50:09.407Z,58.67
2023-02-27T05:52:40.714Z,58.73
2023-02-27T05:55:17.723Z,58.89
2023-02-27T05:57:52.718Z,59.13
2023-02-27T06:00:27.244Z,59.31
2023-02-27T06:02:58.003Z,59.61
2023-02-27T06:05:29.712Z,59.94
2023-02-27T06:08:00.723Z,59.97
2023-02-27T06:10:32.098Z,60.02
2023-02-27T06:13:03.048Z,60.42
2023-02-27T06:15:33.568Z,60.47
2023-02-27T06:18:04.798Z,60.62
2023-02-27T06:20:36.422Z,60.59
2023-02-27T06:23:07.034Z,60.78
2023-02-27T06:25:38.236Z,60.82
2023-02-27T06:28:10.319Z,60.98
2023-02-27T06:30:41.195Z,61.00
2023-02-27T06:33:12.386Z,61.04
2023-02-27T06:35:42.937Z,61.05
2023-02-27T06:38:13.446Z,61.21
2023-02-27T06:40:43.883Z,61.27
2023-02-27T06:43:14.852Z,61.31
2023-02-27T06:45:45.403Z,61.14
2023-02-27T06:48:15.834Z,61.14
2023-02-27T06:50:46.217Z,61.17
2023-02-27T06:53:16.856Z,61.08
2023-02-27T06:55:47.254Z,60.95
2023-02-27T06:58:18.226Z,60.93
2023-02-27T07:00:48.944Z,60.74
2023-02-27T07:03:19.358Z,60.74
2023-02-27T07:05:50.472Z,60.55
2023-02-27T07:08:20.989Z,60.44
2023-02-27T07:10:51.567Z,59.51
2023-02-27T07:13:23.312Z,58.57
2023-02-27T07:15:54.059Z,56.86
2023-02-27T07:18:25.594Z,55.20
2023-02-27T07:20:56.247Z,54.78
2023-02-27T07:23:26.787Z,53.79
2023-02-27T07:25:57.406Z,53.21
2023-02-27T07:28:27.881Z,53.33
2023-02-27T07:31:12.272Z,51.90
2023-02-27T07:33:42.935Z,52.10
2023-02-27T07:36:13.476Z,50.55
2023-02-27T07:38:43.909Z,49.84
2023-02-27T07:41:29.549Z,49.74
2023-02-27T07:44:03.270Z,48.53
2023-02-27T07:46:33.900Z,48.61
2023-02-27T07:49:04.349Z,49.26
2023-02-27T07:51:35.051Z,47.89
2023-02-27T07:54:08.368Z,47.98
2023-02-27T07:56:39.404Z,47.21
2023-02-27T07:59:09.837Z,47.07
2023-02-27T08:01:40.337Z,46.31
2023-02-27T08:04:11.082Z,46.66
2023-02-27T08:06:41.752Z,46.59
2023-02-27T08:09:12.175Z,45.53
2023-02-27T08:11:42.555Z,45.86
2023-02-27T08:14:12.978Z,45.98
2023-02-27T08:16:43.493Z,45.69
2023-02-27T08:19:16.026Z,46.11
2023-02-27T08:21:46.391Z,46.48
2023-02-27T08:24:16.960Z,45.98
2023-02-27T08:26:47.525Z,45.90
2023-02-27T08:29:18.903Z,45.94
2023-02-27T08:31:50.404Z,45.32
2023-02-27T08:34:21.352Z,45.12
2023-02-27T08:36:51.899Z,44.63
2023-02-27T08:39:24.074Z,44.60
2023-02-27T08:41:55.098Z,45.09
2023-02-27T08:44:25.481Z,44.92
2023-02-27T08:46:56.211Z,45.16
2023-02-27T08:49:26.897Z,45.13
2023-02-27T08:51:57.452Z,44.83
2023-02-27T08:54:28.549Z,44.39
2023-02-27T08:56:59.243Z,43.92
2023-02-27T08:59:29.839Z,44.08
2023-02-27T09:02:00.768Z,43.99
2023-02-27T09:04:31.666Z,43.52
2023-02-27T09:07:02.342Z,43.33
2023-02-27T09:09:32.906Z,43.46
2023-02-27T09:12:03.525Z,43.35
2023-02-27T09:14:34.714Z,43.56
2023-02-27T09:17:05.198Z,43.29
2023-02-27T09:19:36.108Z,43.79
2023-02-27T09:22:06.958Z,43.60
2023-02-27T09:24:37.435Z,43.39
2023-02-27T09:27:08.011Z,43.92
2023-02-27T09:29:38.553Z,44.35
2023-02-27T09:32:09.605Z,43.73
2023-02-27T09:34:40.112Z,44.03
2023-02-27T09:37:10.558Z,44.27
2023-02-27T09:39:40.999Z,44.21
2023-02-27T09:42:17.329Z,43.85
2023-02-27T09:44:49.556Z,43.65
2023-02-27T09:47:24.846Z,43.40
2023-02-27T09:50:02.290Z,43.20
2023-02-27T09:52:36.295Z,42.46
2023-02-27T09:55:08.442Z,42.44
2023-02-27T09:57:44.998Z,42.80
2023-02-27T10:00:30.370Z,42.20
2023-02-27T10:03:08.207Z,42.94
2023-02-27T10:05:43.536Z,43.66
2023-02-27T10:08:18.208Z,44.70
2023-02-27T10:10:51.856Z,44.32
2023-02-27T10:13:34.966Z,43.18
2023-02-27T10:16:06.178Z,42.65
2023-02-27T10:18:41.367Z,42.69
2023-02-27T10:21:15.147Z,43.24
2023-02-27T10:23:47.465Z,42.85
2023-02-27T10:26:22.092Z,43.51
2023-02-27T10:28:52.545Z,43.93
2023-02-27T10:31:24.836Z,44.79
2023-02-27T10:33:55.414Z,45.65
2023-02-27T10:36:33.484Z,46.34
2023-02-27T10:39:08.029Z,46.89
2023-02-27T10:41:39.924Z,47.26
2023-02-27T10:44:10.867Z,47.58
2023-02-27T10:46:42.719Z,47.92
2023-02-27T10:49:19.225Z,47.93
2023-02-27T10:52:05.486Z,47.50
2023-02-27T10:54:37.105Z,48.02
2023-02-27T10:57:19.189Z,48.51
2023-02-27T10:59:55.868Z,48.59
2023-02-27T11:02:30.436Z,48.18
2023-02-27T11:05:01.865Z,47.31
2023-02-27T11:07:35.186Z,45.88
2023-02-27T11:10:16.885Z,43.97
2023-02-27T11:13:00.837Z,43.68
2023-02-27T11:15:32.932Z,43.83
2023-02-27T11:18:29.237Z,45.14
2023-02-27T11:21:16.836Z,45.50
2023-02-27T11:24:00.885Z,46.30
2023-02-27T11:26:34.292Z,46.16
2023-02-27T11:29:17.307Z,44.68
2023-02-27T11:31:51.338Z,44.14
2023-02-27T11:34:24.836Z,43.07
2023-02-27T11:36:57.401Z,43.00
2023-02-27T11:39:34.045Z,43.12
2023-02-27T11:42:15.047Z,43.32
2023-02-27T11:44:54.382Z,43.70
2023-02-27T11:47:29.649Z,43.21
2023-02-27T11:50:21.362Z,43.17
2023-02-27T11:52:54.371Z,43.55
2023-02-27T11:55:24.404Z,43.68
2023-02-27T11:57:59.507Z,44.01
2023-02-27T12:00:34.572Z,43.93
2023-02-27T12:03:07.979Z,42.61
2023-02-27T12:05:44.129Z,42.51
2023-02-27T12:08:19.384Z,41.57
2023-02-27T12:10:54.155Z,41.59
2023-02-27T12:13:29.094Z,40.65
2023-02-27T12:16:04.272Z,39.52
2023-02-27T12:18:39.618Z,38.47
2023-02-27T12:21:14.183Z,36.79
2023-02-27T12:23:47.335Z,35.72
2023-02-27T12:26:23.817Z,34.81
2023-02-27T12:28:58.204Z,33.86
2023-02-27T12:31:44.263Z,33.25
2023-02-27T12:34:30.193Z,32.89
2023-02-27T12:37:03.996Z,31.38
2023-02-27T12:39:36.206Z,30.22
2023-02-27T12:42:18.342Z,30.99
2023-02-27T12:44:59.708Z,30.58
2023-02-27T12:47:34.646Z,30.84
2023-02-27T12:50:10.696Z,30.34
2023-02-27T12:52:50.027Z,30.24
2023-02-27T12:55:24.269Z,31.22
2023-02-27T12:58:24.251Z,32.09
2023-02-27T13:00:59.773Z,33.04
2023-02-27T13:03:35.331Z,34.74
2023-02-27T13:06:10.928Z,34.88
2023-02-27T13:08:49.472Z,34.15
2023-02-27T13:11:28.061Z,34.86
2023-02-27T13:14:01.965Z,35.36
2023-02-27T13:16:36.637Z,35.98
2023-02-27T13:19:13.120Z,37.42
2023-02-27T13:21:49.483Z,37.60
2023-02-27T13:24:26.775Z,38.43
2023-02-27T13:27:00.973Z,38.06
2023-02-27T13:29:37.940Z,38.88
2023-02-27T13:32:17.008Z,39.62
2023-02-27T13:34:50.944Z,39.56
2023-02-27T13:37:21.382Z,37.03
2023-02-27T13:40:01.416Z,35.93
2023-02-27T13:42:58.404Z,35.42
2023-02-27T13:45:57.109Z,35.70
2023-02-27T13:48:45.811Z,37.00
2023-02-27T13:51:43.374Z,37.22
2023-02-27T13:54:22.278Z,36.19
2023-02-27T13:57:07.348Z,35.57
2023-02-27T13:59:39.570Z,35.09
2023-02-27T14:02:31.578Z,34.83
2023-02-27T14:05:04.940Z,34.96
2023-02-27T14:07:48.720Z,35.88
2023-02-27T14:10:24.285Z,36.80
2023-02-27T14:12:54.821Z,37.46
2023-02-27T14:15:56.907Z,38.22
2023-02-27T14:18:52.749Z,38.76
2023-02-27T14:21:57.274Z,38.41
2023-02-27T14:24:33.608Z,38.12
2023-02-27T14:27:05.157Z,38.40
2023-02-27T14:29:36.493Z,38.53
2023-02-27T14:32:08.691Z,38.04
2023-02-27T14:34:41.230Z,38.46
2023-02-27T14:37:17.191Z,38.56
2023-02-27T14:39:50.795Z,37.67
2023-02-27T14:42:45.012Z,37.36
2023-02-27T14:45:24.224Z,37.62
2023-02-27T14:47:55.203Z,38.06
2023-02-27T14:50:29.137Z,38.16
2023-02-27T14:52:59.514Z,38.45
2023-02-27T14:55:31.705Z,38.28
2023-02-27T14:58:09.876Z,38.83
2023-02-27T15:00:42.339Z,39.06
2023-02-27T15:03:20.436Z,38.58
2023-02-27T15:05:52.659Z,38.86
2023-02-27T15:08:25.400Z,38.89
2023-02-27T15:10:56.834Z,39.09
2023-02-27T15:13:30.398Z,39.57
2023-02-27T15:16:21.051Z,40.26
2023-02-27T15:18:52.522Z,40.33
2023-02-27T15:21:24.583Z,40.10
2023-02-27T15:23:59.428Z,40.51
2023-02-27T15:26:31.445Z,40.51
2023-02-27T15:29:02.891Z,40.48
2023-02-27T15:31:33.535Z,40.68
2023-02-27T15:34:04.834Z,40.43
2023-02-27T15:36:36.725Z,40.48
2023-02-27T15:39:17.861Z,40.28
2023-02-27T15:41:50.060Z,40.99
2023-02-27T15:44:24.885Z,41.49
2023-02-27T15:46:56.032Z,41.74
2023-02-27T15:49:27.833Z,41.81
2023-02-27T15:52:02.215Z,41.31
2023-02-27T15:54:37.417Z,41.51
2023-02-27T15:57:08.381Z,41.94
2023-02-27T15:59:42.006Z,42.22
2023-02-27T16:02:20.175Z,42.35
2023-02-27T16:04:51.062Z,42.27
2023-02-27T16:07:23.368Z,42.07
2023-02-27T16:09:56.795Z,42.35
2023-02-27T16:12:31.709Z,42.61
2023-02-27T16:15:30.248Z,42.61
2023-02-27T16:18:06.771Z,42.56
2023-02-27T16:20:44.579Z,42.94
2023-02-27T16:23:23.279Z,42.95
2023-02-27T16:26:05.308Z,43.03
2023-02-27T16:28:38.260Z,43.02
2023-02-27T16:31:07.251Z,42.77
2023-02-27T16:33:41.540Z,43.12
2023-02-27T16:36:20.416Z,43.43
2023-02-27T16:38:51.773Z,43.54
2023-02-27T16:41:24.287Z,43.78
2023-02-27T16:43:55.654Z,43.66
2023-02-27T16:46:26.281Z,43.83
2023-02-27T16:49:00.663Z,44.18
2023-02-27T16:51:37.089Z,44.17
2023-02-27T16:54:11.130Z,44.67
2023-02-27T16:56:42.249Z,44.27
2023-02-27T16:59:31.118Z,44.36
2023-02-27T17:02:03.777Z,43.86
2023-02-27T17:04:36.462Z,43.49
2023-02-27T17:07:07.454Z,43.96
2023-02-27T17:09:37.978Z,43.89
2023-02-27T17:12:08.891Z,43.83
2023-02-27T17:14:40.294Z,43.93
2023-02-27T17:17:11.550Z,43.83
2023-02-27T17:19:42.289Z,44.12
2023-02-27T17:22:12.844Z,44.57
2023-02-27T17:24:43.273Z,44.94
2023-02-27T17:27:13.678Z,45.38
2023-02-27T17:29:44.159Z,45.84
2023-02-27T17:32:15.030Z,46.19
2023-02-27T17:34:50.673Z,46.42
2023-02-27T17:37:24.755Z,46.91
2023-02-27T17:39:55.439Z,47.06
2023-02-27T17:42:26.514Z,47.12
2023-02-27T17:44:57.126Z,47.29
2023-02-27T17:47:28.031Z,47.41
2023-02-27T17:49:58.957Z,47.63
2023-02-27T17:52:29.859Z,47.72
2023-02-27T17:55:00.411Z,47.84
2023-02-27T17:57:31.004Z,47.90
2023-02-27T18:00:02.444Z,47.95
2023-02-27T18:02:36.014Z,48.17
2023-02-27T18:05:07.888Z,48.27
2023-02-27T18:07:38.548Z,48.45
2023-02-27T18:10:11.471Z,48.56
2023-02-27T18:12:41.860Z,48.84
2023-02-27T18:15:13.481Z,48.82
2023-02-27T18:17:45.408Z,48.94
2023-02-27T18:20:16.536Z,49.22
2023-02-27T18:22:47.177Z,49.32
2023-02-27T18:25:17.922Z,49.54
2023-02-27T18:27:48.996Z,49.73
2023-02-27T18:30:20.406Z,49.91
2023-02-27T18:32:51.341Z,50.21
2023-02-27T18:35:21.988Z,50.36
2023-02-27T18:37:52.621Z,50.68
2023-02-27T18:40:25.492Z,50.86
2023-02-27T18:42:56.232Z,50.89
2023-02-27T18:45:29.685Z,51.00
2023-02-27T18:47:58.595Z,51.02
2023-02-27T18:50:29.218Z,51.16
2023-02-27T18:53:00.450Z,51.24
2023-02-27T18:55:31.010Z,51.44
2023-02-27T18:58:01.614Z,51.66
2023-02-27T19:00:32.134Z,51.95
2023-02-27T19:03:03.258Z,51.88
2023-02-27T19:05:34.541Z,52.02
2023-02-27T19:08:05.395Z,52.14
2023-02-27T19:10:36.281Z,52.20
2023-02-27T19:13:06.740Z,52.31
2023-02-27T19:15:37.701Z,52.37
2023-02-27T19:18:08.685Z,52.43
2023-02-27T19:20:39.297Z,52.58
2023-02-27T19:23:09.766Z,52.61
2023-02-27T19:25:41.999Z,52.80
2023-02-27T19:28:15.137Z,52.88
2023-02-27T19:30:45.604Z,53.27
2023-02-27T19:33:16.130Z,53.48
2023-02-27T19:35:47.062Z,53.75
2023-02-27T19:38:17.756Z,54.13
2023-02-27T19:40:48.500Z,54.31
2023-02-27T19:43:19.878Z,54.68
2023-02-27T19:45:50.990Z,54.55
2023-02-27T19:48:21.738Z,54.85
2023-02-27T19:50:52.323Z,55.08
2023-02-27T19:53:23.332Z,55.14
2023-02-27T19:56:01.566Z,55.29
2023-02-27T19:58:33.542Z,55.28
2023-02-27T20:01:05.152Z,55.35
2023-02-27T20:03:36.293Z,55.42
2023-02-27T20:06:09.133Z,55.43
2023-02-27T20:08:39.744Z,55.49
2023-02-27T20:11:10.404Z,55.61
2023-02-27T20:13:40.843Z,55.70
2023-02-27T20:16:13.162Z,55.86
2023-02-27T20:18:44.039Z,55.92
2023-02-27T20:21:17.001Z,55.93
2023-02-27T20:23:46.524Z,56.02
2023-02-27T20:26:19.993Z,56.17
2023-02-27T20:28:52.808Z,56.22
2023-02-27T20:31:25.835Z,56.26
2023-02-27T20:33:57.207Z,56.44
2023-02-27T20:36:27.995Z,56.56
2023-02-27T20:38:58.418Z,56.57
2023-02-27T20:41:29.965Z,56.76
2023-02-27T20:44:00.965Z,56.82
2023-02-27T20:46:32.740Z,56.88
2023-02-27T20:49:05.108Z,57.10
2023-02-27T20:51:37.527Z,57.21
2023-02-27T20:54:09.879Z,57.29
2023-02-27T20:56:41.980Z,57.39
2023-02-27T20:59:15.421Z,57.23
2023-02-27T21:01:51.329Z,57.37
2023-02-27T21:04:23.796Z,57.48
2023-02-27T21:06:55.785Z,57.52
2023-02-27T21:09:26.227Z,57.55
2023-02-27T21:11:56.996Z,57.62
2023-02-27T21:14:27.447Z,57.63
2023-02-27T21:16:57.824Z,57.65
2023-02-27T21:19:28.237Z,57.72
2023-02-27T21:21:58.873Z,57.91
2023-02-27T21:24:32.183Z,57.96
2023-02-27T21:27:03.349Z,58.06
2023-02-27T21:29:33.710Z,58.19
2023-02-27T21:32:04.778Z,58.28
2023-02-27T21:34:35.693Z,58.41
2023-02-27T21:37:07.368Z,58.43
2023-02-27T21:39:37.787Z,58.66
2023-02-27T21:42:08.397Z,58.73
2023-02-27T21:44:38.760Z,58.82
2023-02-27T21:47:10.700Z,58.98
2023-02-27T21:49:41.199Z,59.02
2023-02-27T21:52:11.707Z,59.23
2023-02-27T21:54:42.287Z,59.23
2023-02-27T21:57:12.798Z,59.29
2023-02-27T21:59:43.365Z,59.56
2023-02-27T22:02:15.004Z,59.54
2023-02-27T22:04:45.370Z,59.78
2023-02-27T22:07:15.836Z,59.93
2023-02-27T22:09:49.897Z,60.21
2023-02-27T22:12:21.946Z,60.25
2023-02-27T22:14:52.895Z,60.16
2023-02-27T22:17:23.372Z,60.14
2023-02-27T22:19:53.923Z,60.43
2023-02-27T22:22:24.468Z,60.63
2023-02-27T22:24:55.201Z,60.03
2023-02-27T22:27:25.815Z,59.71
2023-02-27T22:29:57.130Z,59.38
2023-02-27T22:32:28.835Z,59.52
2023-02-27T22:35:02.497Z,59.76
2023-02-27T22:37:33.011Z,60.16
2023-02-27T22:40:03.558Z,60.40
2023-02-27T22:42:34.005Z,60.61
2023-02-27T22:45:04.783Z,61.07
2023-02-27T22:47:35.381Z,61.08
2023-02-27T22:50:08.151Z,61.16
2023-02-27T22:52:38.830Z,61.40
2023-02-27T22:55:11.219Z,61.78
2023-02-27T22:57:41.555Z,62.15
2023-02-27T23:00:15.293Z,61.93
2023-02-27T23:02:45.592Z,62.29
2023-02-27T23:05:15.992Z,62.31
2023-02-27T23:07:47.194Z,62.32
2023-02-27T23:10:18.343Z,62.20
2023-02-27T23:12:48.678Z,62.32
2023-02-27T23:15:19.267Z,62.29
2023-02-27T23:17:57.753Z,62.29
2023-02-27T23:20:28.799Z,62.40
2023-02-27T23:22:59.177Z,62.51
2023-02-27T23:25:29.623Z,62.58
2023-02-27T23:28:00.031Z,62.77
2023-02-27T23:30:30.954Z,62.72
2023-02-27T23:33:01.679Z,62.80
2023-02-27T23:35:32.359Z,62.95
2023-02-27T23:38:03.113Z,62.96
2023-02-27T23:40:33.705Z,62.73
2023-02-27T23:43:04.217Z,62.54
2023-02-27T23:45:34.762Z,62.53
2023-02-27T23:48:06.033Z,62.54
2023-02-27T23:50:38.742Z,62.62
2023-02-27T23:53:10.407Z,62.47
2023-02-27T23:55:41.050Z,62.79
2023-02-27T23:58:12.620Z,62.89
